createdAt,value
2023-03-11T00:00:22.740Z,7.07
2023-03-11T00:02:52.258Z,6.50
2023-03-11T00:05:23.847Z,7.10
2023-03-11T00:07:52.188Z,6.83
2023-03-11T00:10:22.554Z,7.00
2023-03-11T00:12:50.532Z,7.17
2023-03-11T00:15:18.456Z,6.23
2023-03-11T00:17:48.839Z,6.80
2023-03-11T00:20:20.543Z,6.70
2023-03-11T00:22:48.656Z,6.13
2023-03-11T00:25:16.472Z,6.20
2023-03-11T00:27:44.239Z,6.67
2023-03-11T00:30:13.793Z,7.03
2023-03-11T00:32:42.033Z,7.10
2023-03-11T00:35:13.834Z,9.17
2023-03-11T00:37:41.688Z,7.07
2023-03-11T00:40:14.325Z,7.80
2023-03-11T00:42:42.214Z,8.20
2023-03-11T00:45:10.492Z,8.40
2023-03-11T00:47:38.326Z,9.60
2023-03-11T00:50:07.468Z,9.80
2023-03-11T00:52:36.722Z,8.70
2023-03-11T00:55:04.901Z,10.47
2023-03-11T00:57:32.642Z,9.87
2023-03-11T01:00:00.560Z,10.70
2023-03-11T01:02:28.293Z,9.10
2023-03-11T01:04:56.365Z,10.80
2023-03-11T01:07:24.209Z,9.33
2023-03-11T01:09:53.288Z,10.73
2023-03-11T01:12:21.005Z,10.07
2023-03-11T01:14:48.740Z,7.83
2023-03-11T01:17:16.467Z,7.57
2023-03-11T01:19:44.831Z,7.57
2023-03-11T01:22:12.519Z,8.20
2023-03-11T01:24:40.207Z,8.23
2023-03-11T01:27:09.437Z,7.30
2023-03-11T01:29:37.123Z,7.17
2023-03-11T01:32:05.113Z,8.50
2023-03-11T01:34:35.627Z,8.27
2023-03-11T01:37:03.766Z,7.17
2023-03-11T01:39:31.545Z,7.40
2023-03-11T01:41:59.356Z,7.30
2023-03-11T01:44:28.554Z,7.47
2023-03-11T01:47:35.207Z,6.90
2023-03-11T01:50:04.487Z,8.47
2023-03-11T01:52:32.472Z,6.80
2023-03-11T01:55:00.177Z,7.33
2023-03-11T01:57:28.064Z,8.30
2023-03-11T01:59:59.469Z,7.07
2023-03-11T02:02:31.899Z,7.37
2023-03-11T02:05:01.819Z,7.40
2023-03-11T02:07:29.607Z,8.17
2023-03-11T02:09:57.432Z,6.47
2023-03-11T02:12:25.744Z,5.90
2023-03-11T02:14:54.967Z,6.73
2023-03-11T02:17:24.147Z,5.83
2023-03-11T02:20:12.474Z,6.17
2023-03-11T02:22:42.633Z,4.70
2023-03-11T02:25:19.301Z,4.40
2023-03-11T02:27:50.798Z,4.47
2023-03-11T02:30:18.793Z,5.10
2023-03-11T02:32:48.445Z,3.83
2023-03-11T02:35:17.130Z,4.53
2023-03-11T02:37:46.415Z,3.70
2023-03-11T02:40:40.926Z,3.40
2023-03-11T02:43:11.947Z,4.30
2023-03-11T02:45:41.496Z,4.60
2023-03-11T02:48:11.186Z,3.50
2023-03-11T02:50:39.455Z,4.10
2023-03-11T02:53:07.645Z,3.70
2023-03-11T02:55:35.479Z,4.03
2023-03-11T02:58:03.202Z,4.30
2023-03-11T03:00:32.429Z,3.20
2023-03-11T03:03:00.194Z,3.53
2023-03-11T03:05:28.091Z,3.90
2023-03-11T03:07:55.956Z,4.03
2023-03-11T03:10:24.087Z,4.20
2023-03-11T03:12:51.969Z,3.87
2023-03-11T03:15:19.931Z,3.43
2023-03-11T03:17:51.451Z,3.97
2023-03-11T03:20:22.477Z,4.73
2023-03-11T03:22:51.252Z,4.10
2023-03-11T03:25:19.226Z,3.80
2023-03-11T03:27:47.085Z,4.07
2023-03-11T03:30:16.082Z,3.60
2023-03-11T03:32:44.131Z,3.57
2023-03-11T03:35:13.239Z,3.40
2023-03-11T03:37:41.000Z,3.90
2023-03-11T03:40:10.062Z,3.77
2023-03-11T03:42:38.802Z,3.67
2023-03-11T03:45:08.994Z,4.73
2023-03-11T03:47:37.086Z,3.70
2023-03-11T03:50:06.186Z,4.07
2023-03-11T03:52:35.960Z,3.10
2023-03-11T03:55:04.055Z,3.40
2023-03-11T03:57:31.850Z,2.83
2023-03-11T03:59:59.578Z,3.03
2023-03-11T04:02:27.344Z,3.60
2023-03-11T04:04:55.148Z,2.90
2023-03-11T04:07:22.872Z,3.70
2023-03-11T04:09:51.928Z,3.30
2023-03-11T04:12:19.689Z,2.80
2023-03-11T04:14:47.449Z,4.00
2023-03-11T04:17:17.748Z,3.97
2023-03-11T04:19:45.734Z,4.10
2023-03-11T04:22:13.499Z,3.40
2023-03-11T04:24:41.218Z,4.13
2023-03-11T04:27:10.319Z,3.70
2023-03-11T04:29:38.079Z,3.80
2023-03-11T04:32:06.601Z,4.00
2023-03-11T04:34:34.356Z,3.40
2023-03-11T04:37:02.089Z,3.60
2023-03-11T04:39:29.834Z,3.90
2023-03-11T04:41:58.066Z,3.33
2023-03-11T04:44:27.401Z,4.73
2023-03-11T04:46:56.357Z,3.67
2023-03-11T04:49:24.151Z,4.20
2023-03-11T04:51:51.898Z,4.30
2023-03-11T04:54:19.671Z,3.77
2023-03-11T04:56:47.466Z,4.37
2023-03-11T04:59:15.197Z,5.20
2023-03-11T05:01:44.345Z,3.23
2023-03-11T05:04:12.830Z,3.60
2023-03-11T05:06:40.602Z,5.00
2023-03-11T05:09:08.329Z,4.17
2023-03-11T05:11:36.494Z,3.87
2023-03-11T05:14:04.262Z,3.77
2023-03-11T05:16:31.980Z,4.17
2023-03-11T05:19:01.061Z,4.10
2023-03-11T05:21:29.002Z,3.70
2023-03-11T05:23:56.729Z,4.20
2023-03-11T05:26:25.354Z,3.70
2023-03-11T05:28:53.065Z,3.97
2023-03-11T05:31:20.864Z,3.57
2023-03-11T05:33:48.602Z,4.07
2023-03-11T05:36:17.678Z,3.30
2023-03-11T05:38:45.450Z,3.63
2023-03-11T05:41:13.209Z,3.60
2023-03-11T05:43:40.931Z,3.53
2023-03-11T05:46:08.858Z,3.50
2023-03-11T05:48:36.858Z,3.67
2023-03-11T05:51:07.984Z,3.60
2023-03-11T05:53:37.647Z,4.07
2023-03-11T05:56:06.417Z,2.80
2023-03-11T05:58:34.843Z,3.70
2023-03-11T06:01:02.666Z,3.23
2023-03-11T06:03:30.382Z,3.57
2023-03-11T06:05:58.092Z,2.90
2023-03-11T06:08:25.838Z,3.00
2023-03-11T06:11:02.738Z,4.30
2023-03-11T06:13:30.540Z,4.77
2023-03-11T06:15:58.322Z,3.47
2023-03-11T06:18:26.784Z,3.43
2023-03-11T06:20:54.805Z,3.63
2023-03-11T06:23:22.550Z,2.40
2023-03-11T06:25:58.159Z,3.70
2023-03-11T06:28:26.409Z,4.00
2023-03-11T06:30:56.762Z,3.10
2023-03-11T06:33:25.057Z,2.77
2023-03-11T06:36:03.375Z,2.70
2023-03-11T06:38:31.618Z,3.10
2023-03-11T06:41:01.920Z,5.17
2023-03-11T06:43:29.729Z,2.57
2023-03-11T06:45:57.540Z,2.63
2023-03-11T06:48:26.212Z,2.30
2023-03-11T06:50:57.595Z,2.20
2023-03-11T06:53:26.230Z,3.00
2023-03-11T06:56:03.701Z,2.30
2023-03-11T06:58:32.164Z,2.30
2023-03-11T07:01:02.759Z,2.80
2023-03-11T07:03:30.871Z,2.47
2023-03-11T07:05:58.657Z,2.60
2023-03-11T07:08:27.275Z,2.60
2023-03-11T07:11:04.417Z,4.10
2023-03-11T07:13:32.889Z,2.90
2023-03-11T07:16:02.255Z,3.10
2023-03-11T07:18:30.037Z,2.70
2023-03-11T07:20:57.993Z,4.10
2023-03-11T07:23:25.802Z,5.20
2023-03-11T07:25:55.447Z,4.70
2023-03-11T07:28:24.896Z,3.60
2023-03-11T07:30:53.319Z,3.10
2023-03-11T07:33:22.674Z,3.57
2023-03-11T07:35:50.610Z,3.03
2023-03-11T07:38:19.791Z,3.83
2023-03-11T07:40:47.799Z,3.50
2023-03-11T07:43:16.121Z,4.00
2023-03-11T07:45:45.172Z,3.00
2023-03-11T07:48:12.898Z,2.70
2023-03-11T07:50:40.606Z,5.40
2023-03-11T07:53:08.422Z,2.80
2023-03-11T07:55:36.451Z,3.07
2023-03-11T07:58:04.527Z,3.10
2023-03-11T08:00:32.401Z,2.87
2023-03-11T08:03:01.706Z,3.77
2023-03-11T08:05:29.423Z,3.00
2023-03-11T08:07:57.159Z,2.70
2023-03-11T08:10:24.861Z,2.60
2023-03-11T08:12:52.574Z,3.33
2023-03-11T08:15:20.260Z,2.77
2023-03-11T08:17:48.004Z,2.93
2023-03-11T08:20:17.358Z,3.10
2023-03-11T08:22:57.350Z,3.37
2023-03-11T08:25:26.118Z,4.60
2023-03-11T08:27:53.916Z,2.93
2023-03-11T08:30:21.983Z,2.97
2023-03-11T08:32:50.841Z,2.73
2023-03-11T08:35:19.997Z,3.03
2023-03-11T08:37:47.883Z,3.90
2023-03-11T08:40:15.694Z,3.60
2023-03-11T08:42:43.441Z,3.80
2023-03-11T08:45:12.234Z,3.20
2023-03-11T08:47:40.936Z,4.40
2023-03-11T08:50:13.520Z,3.70
2023-03-11T08:52:42.946Z,4.10
2023-03-11T08:55:13.363Z,3.50
2023-03-11T08:57:42.238Z,3.60
2023-03-11T09:00:13.315Z,2.87
2023-03-11T09:02:41.585Z,3.10
2023-03-11T09:05:10.191Z,3.77
2023-03-11T09:07:37.990Z,3.43
2023-03-11T09:10:08.341Z,3.23
2023-03-11T09:12:36.066Z,3.70
2023-03-11T09:15:03.902Z,3.60
2023-03-11T09:17:31.623Z,3.70
2023-03-11T09:19:59.415Z,3.80
2023-03-11T09:22:27.286Z,3.37
2023-03-11T09:24:55.011Z,4.13
2023-03-11T09:27:24.079Z,4.13
2023-03-11T09:29:51.817Z,4.17
2023-03-11T09:32:19.598Z,3.87
2023-03-11T09:34:47.410Z,4.00
2023-03-11T09:37:15.220Z,4.27
2023-03-11T09:39:42.998Z,4.00
2023-03-11T09:42:20.694Z,4.57
2023-03-11T09:44:57.881Z,4.17
2023-03-11T09:47:38.911Z,4.20
2023-03-11T09:50:19.860Z,4.07
2023-03-11T09:52:57.233Z,4.57
2023-03-11T09:55:37.248Z,4.17
2023-03-11T09:58:12.492Z,4.33
2023-03-11T10:00:42.378Z,4.07
2023-03-11T10:03:25.236Z,4.17
2023-03-11T10:05:55.864Z,4.77
2023-03-11T10:08:30.027Z,4.23
2023-03-11T10:11:07.485Z,5.27
2023-03-11T10:13:40.436Z,5.33
2023-03-11T10:16:17.224Z,4.67
2023-03-11T10:18:56.415Z,5.13
2023-03-11T10:21:39.200Z,4.13
2023-03-11T10:24:19.382Z,3.83
2023-03-11T10:26:51.234Z,4.63
2023-03-11T10:29:22.514Z,5.13
2023-03-11T10:31:58.557Z,4.47
2023-03-11T10:34:32.450Z,4.70
2023-03-11T10:37:06.807Z,5.73
2023-03-11T10:39:35.370Z,6.60
2023-03-11T10:42:05.122Z,4.00
2023-03-11T10:44:35.681Z,4.20
2023-03-11T10:47:05.463Z,4.77
2023-03-11T10:49:34.151Z,3.90
2023-03-11T10:52:05.195Z,4.10
2023-03-11T10:54:35.500Z,3.63
2023-03-11T10:57:05.551Z,4.03
2023-03-11T10:59:37.443Z,4.63
2023-03-11T11:02:25.908Z,4.13
2023-03-11T11:05:08.487Z,5.10
2023-03-11T11:07:39.516Z,3.20
2023-03-11T11:10:20.053Z,3.70
2023-03-11T11:12:56.813Z,3.30
2023-03-11T11:15:27.293Z,2.60
2023-03-11T11:17:59.887Z,2.87
2023-03-11T11:20:29.283Z,3.50
2023-03-11T11:22:59.558Z,3.77
2023-03-11T11:25:38.936Z,3.73
2023-03-11T11:28:17.564Z,2.83
2023-03-11T11:30:54.684Z,3.00
2023-03-11T11:33:26.659Z,3.83
2023-03-11T11:35:56.840Z,3.10
2023-03-11T11:38:27.430Z,3.30
2023-03-11T11:40:57.627Z,2.97
2023-03-11T11:43:47.342Z,2.90
2023-03-11T11:46:21.991Z,3.10
2023-03-11T11:48:59.262Z,3.30
2023-03-11T11:51:32.328Z,3.90
2023-03-11T11:54:05.117Z,2.60
2023-03-11T11:56:32.856Z,3.70
2023-03-11T11:59:00.952Z,3.40
2023-03-11T12:01:41.097Z,3.13
2023-03-11T12:04:39.372Z,2.67
2023-03-11T12:07:22.066Z,2.50
2023-03-11T12:09:56.702Z,2.17
2023-03-11T12:12:29.208Z,2.53
2023-03-11T12:15:03.057Z,2.10
2023-03-11T12:17:33.574Z,2.13
2023-03-11T12:20:08.632Z,1.77
2023-03-11T12:23:17.013Z,2.33
2023-03-11T12:26:03.282Z,2.10
2023-03-11T12:28:38.938Z,1.87
2023-03-11T12:31:10.498Z,1.80
2023-03-11T12:33:41.183Z,1.97
2023-03-11T12:36:24.420Z,1.93
2023-03-11T12:38:54.079Z,2.13
2023-03-11T12:41:36.840Z,1.80
2023-03-11T12:44:20.778Z,2.00
2023-03-11T12:47:21.246Z,1.60
2023-03-11T12:49:51.640Z,2.10
2023-03-11T12:52:29.887Z,2.20
2023-03-11T12:55:32.586Z,2.00
2023-03-11T12:58:19.919Z,2.30
2023-03-11T13:01:18.376Z,1.80
2023-03-11T13:03:56.800Z,1.73
2023-03-11T13:06:48.444Z,1.60
2023-03-11T13:09:18.507Z,1.60
2023-03-11T13:11:48.781Z,3.43
2023-03-11T13:14:37.382Z,1.60
2023-03-11T13:17:27.276Z,1.43
2023-03-11T13:19:56.430Z,1.80
2023-03-11T13:23:02.183Z,2.93
2023-03-11T13:25:36.096Z,1.80
2023-03-11T13:28:33.166Z,2.20
2023-03-11T13:31:16.846Z,2.07
2023-03-11T13:33:52.596Z,2.00
2023-03-11T13:36:37.412Z,1.67
2023-03-11T13:39:46.368Z,1.40
2023-03-11T13:42:27.456Z,1.60
2023-03-11T13:44:55.366Z,2.10
2023-03-11T13:47:24.304Z,1.43
2023-03-11T13:49:55.641Z,1.50
2023-03-11T13:52:28.625Z,1.67
2023-03-11T13:55:02.062Z,1.43
2023-03-11T13:57:32.478Z,1.73
2023-03-11T14:00:17.534Z,1.50
2023-03-11T14:02:50.968Z,1.53
2023-03-11T14:05:21.808Z,1.60
2023-03-11T14:07:49.529Z,1.73
2023-03-11T14:10:26.935Z,2.30
2023-03-11T14:13:15.008Z,1.70
2023-03-11T14:15:48.746Z,1.93
2023-03-11T14:18:29.557Z,2.03
2023-03-11T14:20:58.150Z,1.60
2023-03-11T14:23:29.881Z,1.63
2023-03-11T14:26:07.067Z,1.90
2023-03-11T14:28:40.672Z,1.60
2023-03-11T14:31:09.196Z,1.47
2023-03-11T14:33:36.901Z,1.73
2023-03-11T14:36:11.602Z,1.53
2023-03-11T14:38:44.034Z,1.83
2023-03-11T14:41:14.932Z,1.80
2023-03-11T14:43:47.545Z,1.17
2023-03-11T14:46:21.104Z,1.93
2023-03-11T14:48:49.300Z,1.53
2023-03-11T14:51:20.631Z,1.43
2023-03-11T14:53:53.756Z,1.43
2023-03-11T14:56:24.256Z,1.73
2023-03-11T14:59:07.668Z,1.60
2023-03-11T15:01:40.617Z,2.00
2023-03-11T15:04:13.096Z,1.80
2023-03-11T15:06:43.612Z,2.70
2023-03-11T15:09:14.270Z,4.10
2023-03-11T15:11:47.439Z,1.30
2023-03-11T15:14:22.384Z,1.20
2023-03-11T15:16:50.724Z,1.00
2023-03-11T15:19:33.179Z,1.70
2023-03-11T15:22:06.738Z,1.40
2023-03-11T15:24:34.960Z,1.80
2023-03-11T15:27:05.534Z,1.80
2023-03-11T15:29:35.881Z,1.90
2023-03-11T15:32:25.448Z,1.60
2023-03-11T15:35:00.854Z,1.73
2023-03-11T15:37:28.636Z,2.90
2023-03-11T15:39:59.012Z,1.80
2023-03-11T15:42:31.048Z,1.60
2023-03-11T15:45:05.413Z,1.60
2023-03-11T15:47:33.113Z,3.50
2023-03-11T15:50:23.547Z,1.50
2023-03-11T15:52:52.742Z,1.50
2023-03-11T15:55:20.593Z,1.50
2023-03-11T15:57:48.954Z,1.37
2023-03-11T16:00:22.135Z,1.70
2023-03-11T16:02:50.836Z,1.70
2023-03-11T16:05:21.073Z,1.83
2023-03-11T16:07:49.355Z,2.03
2023-03-11T16:10:19.014Z,1.50
2023-03-11T16:12:47.045Z,2.00
2023-03-11T16:15:24.729Z,1.20
2023-03-11T16:17:53.152Z,1.30
2023-03-11T16:20:22.206Z,2.60
2023-03-11T16:22:53.072Z,1.40
2023-03-11T16:25:24.436Z,1.60
2023-03-11T16:27:53.867Z,1.70
2023-03-11T16:30:24.972Z,2.30
2023-03-11T16:32:52.888Z,1.73
2023-03-11T16:35:20.936Z,1.60
2023-03-11T16:37:49.305Z,1.80
2023-03-11T16:40:19.277Z,1.77
2023-03-11T16:42:47.422Z,1.80
2023-03-11T16:45:17.748Z,1.50
2023-03-11T16:47:46.882Z,1.87
2023-03-11T16:50:14.598Z,1.97
2023-03-11T16:52:42.316Z,1.77
2023-03-11T16:55:10.836Z,2.00
2023-03-11T16:57:39.419Z,1.60
2023-03-11T17:00:09.769Z,1.70
2023-03-11T17:02:38.151Z,2.80
2023-03-11T17:05:09.267Z,1.57
2023-03-11T17:07:39.425Z,1.43
2023-03-11T17:10:09.130Z,1.70
2023-03-11T17:12:37.087Z,2.37
2023-03-11T17:15:06.450Z,1.60
2023-03-11T17:17:34.162Z,1.80
2023-03-11T17:20:01.904Z,2.20
2023-03-11T17:22:32.386Z,1.77
2023-03-11T17:25:00.125Z,1.63
2023-03-11T17:27:32.137Z,2.07
2023-03-11T17:30:00.179Z,2.23
2023-03-11T17:32:28.103Z,1.70
2023-03-11T17:34:56.088Z,1.80
2023-03-11T17:37:24.217Z,2.23
2023-03-11T17:39:53.627Z,1.50
2023-03-11T17:42:21.522Z,1.53
2023-03-11T17:44:52.089Z,1.80
2023-03-11T17:47:21.250Z,1.87
2023-03-11T17:49:49.463Z,1.70
2023-03-11T17:52:17.260Z,2.10
2023-03-11T17:54:45.260Z,1.97
2023-03-11T17:57:14.313Z,2.20
2023-03-11T17:59:41.986Z,2.33
2023-03-11T18:02:14.108Z,1.90
2023-03-11T18:04:45.834Z,1.80
2023-03-11T18:07:13.608Z,1.77
2023-03-11T18:09:41.309Z,1.73
2023-03-11T18:12:09.150Z,1.80
2023-03-11T18:14:38.337Z,1.67
2023-03-11T18:17:06.248Z,1.77
2023-03-11T18:19:34.363Z,1.40
2023-03-11T18:22:02.181Z,1.67
2023-03-11T18:24:29.985Z,1.80
2023-03-11T18:26:57.706Z,2.20
2023-03-11T18:29:25.445Z,1.87
2023-03-11T18:31:54.528Z,1.50
2023-03-11T18:34:23.141Z,1.50
2023-03-11T18:36:50.999Z,1.70
2023-03-11T18:39:18.742Z,1.77
2023-03-11T18:41:46.533Z,1.90
2023-03-11T18:44:14.284Z,1.87
2023-03-11T18:46:42.436Z,1.93
2023-03-11T18:49:13.944Z,1.80
2023-03-11T18:51:41.950Z,3.10
2023-03-11T18:54:09.678Z,2.00
2023-03-11T18:56:37.400Z,2.37
2023-03-11T18:59:05.149Z,2.40
2023-03-11T19:01:32.956Z,2.20
2023-03-11T19:04:01.594Z,2.00
2023-03-11T19:06:30.679Z,1.87
2023-03-11T19:08:58.855Z,1.73
2023-03-11T19:11:27.403Z,1.80
2023-03-11T19:13:55.788Z,1.70
2023-03-11T19:16:25.963Z,1.80
2023-03-11T19:18:55.112Z,2.03
2023-03-11T19:21:23.856Z,2.57
2023-03-11T19:23:55.073Z,2.10
2023-03-11T19:26:33.794Z,2.07
2023-03-11T19:29:05.366Z,2.07
2023-03-11T19:31:33.072Z,2.10
2023-03-11T19:34:00.889Z,2.00
2023-03-11T19:36:28.713Z,1.90
2023-03-11T19:38:57.730Z,2.07
2023-03-11T19:41:25.413Z,2.00
2023-03-11T19:43:53.254Z,2.00
2023-03-11T19:46:22.749Z,2.10
2023-03-11T19:48:50.761Z,2.40
2023-03-11T19:51:19.428Z,2.53
2023-03-11T19:53:47.283Z,2.40
2023-03-11T19:56:16.543Z,2.40
2023-03-11T19:58:44.277Z,1.73
2023-03-11T20:01:17.453Z,2.00
2023-03-11T20:03:45.496Z,2.40
2023-03-11T20:06:16.361Z,1.90
2023-03-11T20:08:44.616Z,1.83
2023-03-11T20:11:12.430Z,1.63
2023-03-11T20:13:43.699Z,3.03
2023-03-11T20:16:13.644Z,1.60
2023-03-11T20:18:41.873Z,1.70
2023-03-11T20:21:12.008Z,3.20
2023-03-11T20:23:41.123Z,1.90
2023-03-11T20:26:10.647Z,2.20
2023-03-11T20:28:38.735Z,2.10
2023-03-11T20:31:15.203Z,1.83
2023-03-11T20:33:42.984Z,2.70
2023-03-11T20:36:12.323Z,3.10
2023-03-11T20:38:40.807Z,2.53
2023-03-11T20:41:09.620Z,2.13
2023-03-11T20:43:38.810Z,1.90
2023-03-11T20:46:07.791Z,2.20
2023-03-11T20:48:37.815Z,1.90
2023-03-11T20:51:08.310Z,2.27
2023-03-11T20:53:36.118Z,2.17
2023-03-11T20:56:08.100Z,3.00
2023-03-11T20:58:35.952Z,1.83
2023-03-11T21:01:11.528Z,2.00
2023-03-11T21:03:40.689Z,2.07
2023-03-11T21:06:14.864Z,2.07
2023-03-11T21:08:42.690Z,1.87
2023-03-11T21:11:10.437Z,2.23
2023-03-11T21:13:38.180Z,2.03
2023-03-11T21:16:06.985Z,1.80
2023-03-11T21:18:35.871Z,2.17
2023-03-11T21:21:08.340Z,1.80
2023-03-11T21:23:36.357Z,2.10
2023-03-11T21:26:05.057Z,2.07
2023-03-11T21:28:34.340Z,1.50
2023-03-11T21:31:04.689Z,2.03
2023-03-11T21:33:32.717Z,1.97
2023-03-11T21:36:02.006Z,2.00
2023-03-11T21:38:31.875Z,1.80
2023-03-11T21:41:06.756Z,1.73
2023-03-11T21:43:35.284Z,2.08
2023-03-11T21:46:03.124Z,1.60
2023-03-11T21:48:31.042Z,1.80
2023-03-11T21:50:59.008Z,1.90
2023-03-11T21:53:26.963Z,2.00
2023-03-11T21:55:56.101Z,2.00
2023-03-11T21:58:24.052Z,2.60
2023-03-11T22:00:51.878Z,1.90
2023-03-11T22:03:20.125Z,1.90
2023-03-11T22:05:47.979Z,2.37
2023-03-11T22:08:15.734Z,1.87
2023-03-11T22:10:43.495Z,1.87
2023-03-11T22:13:12.574Z,2.00
2023-03-11T22:15:40.504Z,1.80
2023-03-11T22:18:08.310Z,2.10
2023-03-11T22:20:36.299Z,2.20
2023-03-11T22:23:04.010Z,1.70
2023-03-11T22:25:31.718Z,1.70
2023-03-11T22:27:59.580Z,2.10
2023-03-11T22:30:28.732Z,1.70
2023-03-11T22:32:56.566Z,1.83
2023-03-11T22:35:24.286Z,2.20
2023-03-11T22:37:52.205Z,1.60
2023-03-11T22:40:20.313Z,1.43
2023-03-11T22:42:48.105Z,1.87
2023-03-11T22:45:15.887Z,2.10
2023-03-11T22:47:44.921Z,1.97
2023-03-11T22:50:12.628Z,1.50
2023-03-11T22:52:40.310Z,1.80
2023-03-11T22:55:10.392Z,1.57
2023-03-11T22:57:39.367Z,1.80
2023-03-11T23:00:19.888Z,1.77
2023-03-11T23:02:50.608Z,1.67
2023-03-11T23:05:18.686Z,2.17
2023-03-11T23:07:46.536Z,1.57
2023-03-11T23:10:15.613Z,1.90
2023-03-11T23:12:43.488Z,1.90
2023-03-11T23:15:14.643Z,1.70
2023-03-11T23:17:45.868Z,1.50
2023-03-11T23:20:16.570Z,1.63
2023-03-11T23:22:45.085Z,1.60
2023-03-11T23:25:14.642Z,2.00
2023-03-11T23:27:43.281Z,2.27
2023-03-11T23:30:13.087Z,1.80
2023-03-11T23:32:41.010Z,1.47
2023-03-11T23:35:09.380Z,1.77
2023-03-11T23:37:38.573Z,1.53
2023-03-11T23:40:07.716Z,1.40
2023-03-11T23:42:36.002Z,1.90
2023-03-11T23:45:04.062Z,3.10
2023-03-11T23:47:31.840Z,1.67
2023-03-11T23:49:59.552Z,1.63
2023-03-11T23:52:27.491Z,1.70
2023-03-11T23:54:56.818Z,1.90
2023-03-11T23:57:24.542Z,1.63
2023-03-11T23:59:52.310Z,1.60
